sensor_id;sensor_type;location;lat;lon;timestamp;P1;P2;P0
63305;PMS5003;50735;52.060;1.248;2022-10-04T00:02:17;17;16;
63305;PMS5003;50735;52.060;1.248;2022-10-04T00:04:50;12;10;
63305;PMS5003;50735;52.060;1.248;2022-10-04T00:07:21;11;11;
63305;PMS5003;50735;52.060;1.248;2022-10-04T00:09:53;12;12;
63305;PMS5003;50735;52.060;1.248;2022-10-04T00:12:23;14;14;
63305;PMS5003;50735;52.060;1.248;2022-10-04T00:14:54;16;13;
63305;PMS5003;50735;52.060;1.248;2022-10-04T00:17:25;19;19;
63305;PMS5003;50735;52.060;1.248;2022-10-04T00:19:55;12;12;
63305;PMS5003;50735;52.060;1.248;2022-10-04T00:22:23;16;16;
63305;PMS5003;50735;52.060;1.248;2022-10-04T00:25:32;16;14;
63305;PMS5003;50735;52.060;1.248;2022-10-04T00:28:48;19;15;
63305;PMS5003;50735;52.060;1.248;2022-10-04T00:31:16;17;17;
63305;PMS5003;50735;52.060;1.248;2022-10-04T00:33:47;16;16;
63305;PMS5003;50735;52.060;1.248;2022-10-04T00:36:50;14;11;
63305;PMS5003;50735;52.060;1.248;2022-10-04T00:39:27;21;18;
63305;PMS5003;50735;52.060;1.248;2022-10-04T00:42:08;22;21;
63305;PMS5003;50735;52.060;1.248;2022-10-04T00:45:17;18;16;
63305;PMS5003;50735;52.060;1.248;2022-10-04T00:47:55;21;16;
63305;PMS5003;50735;52.060;1.248;2022-10-04T00:50:30;16;16;
63305;PMS5003;50735;52.060;1.248;2022-10-04T00:53:03;26;21;
63305;PMS5003;50735;52.060;1.248;2022-10-04T00:55:40;20;20;
63305;PMS5003;50735;52.060;1.248;2022-10-04T00:58:13;20;19;
63305;PMS5003;50735;52.060;1.248;2022-10-04T01:00:44;25;22;
63305;PMS5003;50735;52.060;1.248;2022-10-04T01:03:14;27;21;
63305;PMS5003;50735;52.060;1.248;2022-10-04T01:05:48;26;21;
63305;PMS5003;50735;52.060;1.248;2022-10-04T01:08:21;23;19;
63305;PMS5003;50735;52.060;1.248;2022-10-04T01:10:51;19;18;
63305;PMS5003;50735;52.060;1.248;2022-10-04T01:13:21;19;18;
63305;PMS5003;50735;52.060;1.248;2022-10-04T01:15:55;21;18;
63305;PMS5003;50735;52.060;1.248;2022-10-04T01:18:28;23;21;
63305;PMS5003;50735;52.060;1.248;2022-10-04T01:20:58;23;20;
63305;PMS5003;50735;52.060;1.248;2022-10-04T01:23:30;28;22;
63305;PMS5003;50735;52.060;1.248;2022-10-04T01:25:59;27;24;
63305;PMS5003;50735;52.060;1.248;2022-10-04T01:28:26;23;20;
63305;PMS5003;50735;52.060;1.248;2022-10-04T01:30:53;19;19;
63305;PMS5003;50735;52.060;1.248;2022-10-04T01:33:20;21;20;
63305;PMS5003;50735;52.060;1.248;2022-10-04T01:35:47;20;19;
63305;PMS5003;50735;52.060;1.248;2022-10-04T01:38:14;25;25;
63305;PMS5003;50735;52.060;1.248;2022-10-04T01:40:42;21;21;
63305;PMS5003;50735;52.060;1.248;2022-10-04T01:43:13;29;26;
63305;PMS5003;50735;52.060;1.248;2022-10-04T01:45:46;26;23;
63305;PMS5003;50735;52.060;1.248;2022-10-04T01:48:17;23;22;
63305;PMS5003;50735;52.060;1.248;2022-10-04T01:50:50;26;23;
63305;PMS5003;50735;52.060;1.248;2022-10-04T01:53:25;22;22;
63305;PMS5003;50735;52.060;1.248;2022-10-04T01:55:54;27;23;
63305;PMS5003;50735;52.060;1.248;2022-10-04T01:58:31;23;22;
63305;PMS5003;50735;52.060;1.248;2022-10-04T02:01:07;20;20;
63305;PMS5003;50735;52.060;1.248;2022-10-04T02:03:39;22;21;
63305;PMS5003;50735;52.060;1.248;2022-10-04T02:06:10;31;27;
63305;PMS5003;50735;52.060;1.248;2022-10-04T02:08:38;26;23;
63305;PMS5003;50735;52.060;1.248;2022-10-04T02:11:14;21;19;
63305;PMS5003;50735;52.060;1.248;2022-10-04T02:13:43;23;22;
63305;PMS5003;50735;52.060;1.248;2022-10-04T02:16:12;21;20;
63305;PMS5003;50735;52.060;1.248;2022-10-04T02:18:40;26;22;
63305;PMS5003;50735;52.060;1.248;2022-10-04T02:21:09;27;24;
63305;PMS5003;50735;52.060;1.248;2022-10-04T02:23:38;27;25;
63305;PMS5003;50735;52.060;1.248;2022-10-04T02:26:06;22;22;
63305;PMS5003;50735;52.060;1.248;2022-10-04T02:28:35;27;24;
63305;PMS5003;50735;52.060;1.248;2022-10-04T02:31:03;21;21;
63305;PMS5003;50735;52.060;1.248;2022-10-04T02:33:32;23;23;
63305;PMS5003;50735;52.060;1.248;2022-10-04T02:36:04;22;19;
63305;PMS5003;50735;52.060;1.248;2022-10-04T02:38:32;30;26;
63305;PMS5003;50735;52.060;1.248;2022-10-04T02:41:02;23;19;
63305;PMS5003;50735;52.060;1.248;2022-10-04T02:43:36;22;18;
63305;PMS5003;50735;52.060;1.248;2022-10-04T02:46:07;28;24;
63305;PMS5003;50735;52.060;1.248;2022-10-04T02:48:42;25;20;
63305;PMS5003;50735;52.060;1.248;2022-10-04T02:51:14;23;19;
63305;PMS5003;50735;52.060;1.248;2022-10-04T02:53:49;27;22;
63305;PMS5003;50735;52.060;1.248;2022-10-04T02:56:21;20;20;
63305;PMS5003;50735;52.060;1.248;2022-10-04T02:58:49;21;21;
63305;PMS5003;50735;52.060;1.248;2022-10-04T03:01:23;18;17;
63305;PMS5003;50735;52.060;1.248;2022-10-04T03:03:51;22;22;
63305;PMS5003;50735;52.060;1.248;2022-10-04T03:06:21;25;20;
63305;PMS5003;50735;52.060;1.248;2022-10-04T03:08:54;21;17;
63305;PMS5003;50735;52.060;1.248;2022-10-04T03:11:25;19;18;
63305;PMS5003;50735;52.060;1.248;2022-10-04T03:13:56;20;18;
63305;PMS5003;50735;52.060;1.248;2022-10-04T03:16:25;17;17;
63305;PMS5003;50735;52.060;1.248;2022-10-04T03:18:54;18;18;
63305;PMS5003;50735;52.060;1.248;2022-10-04T03:21:22;22;19;
63305;PMS5003;50735;52.060;1.248;2022-10-04T03:23:50;21;18;
63305;PMS5003;50735;52.060;1.248;2022-10-04T03:26:22;21;18;
63305;PMS5003;50735;52.060;1.248;2022-10-04T03:28:54;22;19;
63305;PMS5003;50735;52.060;1.248;2022-10-04T03:31:21;19;17;
63305;PMS5003;50735;52.060;1.248;2022-10-04T03:33:49;21;18;
63305;PMS5003;50735;52.060;1.248;2022-10-04T03:36:17;20;20;
63305;PMS5003;50735;52.060;1.248;2022-10-04T03:38:44;21;17;
63305;PMS5003;50735;52.060;1.248;2022-10-04T03:41:13;23;20;
63305;PMS5003;50735;52.060;1.248;2022-10-04T03:43:41;21;18;
63305;PMS5003;50735;52.060;1.248;2022-10-04T03:46:10;27;25;
63305;PMS5003;50735;52.060;1.248;2022-10-04T03:48:40;23;23;
63305;PMS5003;50735;52.060;1.248;2022-10-04T03:51:11;21;19;
63305;PMS5003;50735;52.060;1.248;2022-10-04T03:53:42;17;15;
63305;PMS5003;50735;52.060;1.248;2022-10-04T03:56:11;25;19;
63305;PMS5003;50735;52.060;1.248;2022-10-04T03:58:42;21;18;
63305;PMS5003;50735;52.060;1.248;2022-10-04T04:01:12;21;21;
63305;PMS5003;50735;52.060;1.248;2022-10-04T04:03:47;24;22;
63305;PMS5003;50735;52.060;1.248;2022-10-04T04:06:20;20;18;
63305;PMS5003;50735;52.060;1.248;2022-10-04T04:08:50;20;17;
63305;PMS5003;50735;52.060;1.248;2022-10-04T04:11:21;22;19;
63305;PMS5003;50735;52.060;1.248;2022-10-04T04:13:51;22;20;
63305;PMS5003;50735;52.060;1.248;2022-10-04T04:16:23;19;17;
63305;PMS5003;50735;52.060;1.248;2022-10-04T04:18:51;23;21;
63305;PMS5003;50735;52.060;1.248;2022-10-04T04:21:20;12;12;
63305;PMS5003;50735;52.060;1.248;2022-10-04T04:23:49;21;16;
63305;PMS5003;50735;52.060;1.248;2022-10-04T04:26:22;23;20;
63305;PMS5003;50735;52.060;1.248;2022-10-04T04:28:53;20;19;
63305;PMS5003;50735;52.060;1.248;2022-10-04T04:31:27;20;18;
63305;PMS5003;50735;52.060;1.248;2022-10-04T04:33:59;21;20;
63305;PMS5003;50735;52.060;1.248;2022-10-04T04:36:29;28;21;
63305;PMS5003;50735;52.060;1.248;2022-10-04T04:39:06;18;16;
63305;PMS5003;50735;52.060;1.248;2022-10-04T04:41:33;24;18;
63305;PMS5003;50735;52.060;1.248;2022-10-04T04:44:01;17;17;
63305;PMS5003;50735;52.060;1.248;2022-10-04T04:46:29;21;18;
63305;PMS5003;50735;52.060;1.248;2022-10-04T04:48:58;18;16;
63305;PMS5003;50735;52.060;1.248;2022-10-04T04:51:28;18;17;
63305;PMS5003;50735;52.060;1.248;2022-10-04T04:53:57;14;14;
63305;PMS5003;50735;52.060;1.248;2022-10-04T04:56:27;22;20;
63305;PMS5003;50735;52.060;1.248;2022-10-04T04:58:56;19;14;
63305;PMS5003;50735;52.060;1.248;2022-10-04T05:01:27;18;15;
63305;PMS5003;50735;52.060;1.248;2022-10-04T05:04:00;17;13;
63305;PMS5003;50735;52.060;1.248;2022-10-04T05:06:30;25;19;
63305;PMS5003;50735;52.060;1.248;2022-10-04T05:08:58;15;14;
63305;PMS5003;50735;52.060;1.248;2022-10-04T05:11:27;20;13;
63305;PMS5003;50735;52.060;1.248;2022-10-04T05:13:57;17;13;
63305;PMS5003;50735;52.060;1.248;2022-10-04T05:16:27;15;15;
63305;PMS5003;50735;52.060;1.248;2022-10-04T05:19:02;13;11;
63305;PMS5003;50735;52.060;1.248;2022-10-04T05:21:33;12;12;
63305;PMS5003;50735;52.060;1.248;2022-10-04T05:24:06;18;16;
63305;PMS5003;50735;52.060;1.248;2022-10-04T05:26:36;14;13;
63305;PMS5003;50735;52.060;1.248;2022-10-04T05:29:06;13;13;
63305;PMS5003;50735;52.060;1.248;2022-10-04T05:31:38;15;11;
63305;PMS5003;50735;52.060;1.248;2022-10-04T05:34:17;18;17;
63305;PMS5003;50735;52.060;1.248;2022-10-04T05:36:50;15;15;
63305;PMS5003;50735;52.060;1.248;2022-10-04T05:39:31;13;13;
63305;PMS5003;50735;52.060;1.248;2022-10-04T05:42:08;14;12;
63305;PMS5003;50735;52.060;1.248;2022-10-04T05:44:44;11;11;
63305;PMS5003;50735;52.060;1.248;2022-10-04T05:47:14;17;17;
63305;PMS5003;50735;52.060;1.248;2022-10-04T05:49:42;15;13;
63305;PMS5003;50735;52.060;1.248;2022-10-04T05:52:12;13;13;
63305;PMS5003;50735;52.060;1.248;2022-10-04T05:54:41;15;12;
63305;PMS5003;50735;52.060;1.248;2022-10-04T05:57:13;15;12;
63305;PMS5003;50735;52.060;1.248;2022-10-04T05:59:55;15;12;
63305;PMS5003;50735;52.060;1.248;2022-10-04T06:02:30;11;11;
63305;PMS5003;50735;52.060;1.248;2022-10-04T06:05:13;14;13;
63305;PMS5003;50735;52.060;1.248;2022-10-04T06:07:49;10;9;
63305;PMS5003;50735;52.060;1.248;2022-10-04T06:10:31;11;11;
63305;PMS5003;50735;52.060;1.248;2022-10-04T06:13:14;15;13;
63305;PMS5003;50735;52.060;1.248;2022-10-04T06:15:55;11;11;
63305;PMS5003;50735;52.060;1.248;2022-10-04T06:18:35;12;10;
63305;PMS5003;50735;52.060;1.248;2022-10-04T06:21:15;10;8;
63305;PMS5003;50735;52.060;1.248;2022-10-04T06:23:47;13;11;
63305;PMS5003;50735;52.060;1.248;2022-10-04T06:26:20;10;10;
63305;PMS5003;50735;52.060;1.248;2022-10-04T06:28:48;10;10;
63305;PMS5003;50735;52.060;1.248;2022-10-04T06:31:24;13;8;
63305;PMS5003;50735;52.060;1.248;2022-10-04T06:34:27;16;10;
63305;PMS5003;50735;52.060;1.248;2022-10-04T06:37:14;14;11;
63305;PMS5003;50735;52.060;1.248;2022-10-04T06:39:56;12;9;
63305;PMS5003;50735;52.060;1.248;2022-10-04T06:42:46;13;11;
63305;PMS5003;50735;52.060;1.248;2022-10-04T06:45:27;14;14;
63305;PMS5003;50735;52.060;1.248;2022-10-04T06:48:10;15;13;
63305;PMS5003;50735;52.060;1.248;2022-10-04T06:50:54;11;10;
63305;PMS5003;50735;52.060;1.248;2022-10-04T06:53:31;15;11;
63305;PMS5003;50735;52.060;1.248;2022-10-04T06:56:17;14;12;
63305;PMS5003;50735;52.060;1.248;2022-10-04T06:58:59;12;11;
63305;PMS5003;50735;52.060;1.248;2022-10-04T07:01:37;10;8;
63305;PMS5003;50735;52.060;1.248;2022-10-04T07:04:15;15;10;
63305;PMS5003;50735;52.060;1.248;2022-10-04T07:06:50;11;9;
63305;PMS5003;50735;52.060;1.248;2022-10-04T07:09:22;14;11;
63305;PMS5003;50735;52.060;1.248;2022-10-04T07:11:53;13;10;
63305;PMS5003;50735;52.060;1.248;2022-10-04T07:14:26;12;12;
63305;PMS5003;50735;52.060;1.248;2022-10-04T07:17:00;8;8;
63305;PMS5003;50735;52.060;1.248;2022-10-04T07:19:33;17;11;
63305;PMS5003;50735;52.060;1.248;2022-10-04T07:22:09;9;9;
63305;PMS5003;50735;52.060;1.248;2022-10-04T07:24:46;14;10;
63305;PMS5003;50735;52.060;1.248;2022-10-04T07:27:25;15;8;
63305;PMS5003;50735;52.060;1.248;2022-10-04T07:29:57;11;9;
63305;PMS5003;50735;52.060;1.248;2022-10-04T07:32:27;10;10;
63305;PMS5003;50735;52.060;1.248;2022-10-04T07:34:58;10;10;
63305;PMS5003;50735;52.060;1.248;2022-10-04T07:37:31;14;9;
63305;PMS5003;50735;52.060;1.248;2022-10-04T07:40:03;9;8;
63305;PMS5003;50735;52.060;1.248;2022-10-04T07:42:37;15;12;
63305;PMS5003;50735;52.060;1.248;2022-10-04T07:45:13;13;10;
63305;PMS5003;50735;52.060;1.248;2022-10-04T07:47:44;15;11;
63305;PMS5003;50735;52.060;1.248;2022-10-04T07:50:29;15;10;
63305;PMS5003;50735;52.060;1.248;2022-10-04T07:53:02;10;10;
63305;PMS5003;50735;52.060;1.248;2022-10-04T07:55:36;9;9;
63305;PMS5003;50735;52.060;1.248;2022-10-04T07:58:14;11;8;
63305;PMS5003;50735;52.060;1.248;2022-10-04T08:00:50;9;9;
63305;PMS5003;50735;52.060;1.248;2022-10-04T08:03:33;12;12;
63305;PMS5003;50735;52.060;1.248;2022-10-04T08:06:12;10;7;
63305;PMS5003;50735;52.060;1.248;2022-10-04T08:08:54;11;10;
63305;PMS5003;50735;52.060;1.248;2022-10-04T08:11:40;6;6;
63305;PMS5003;50735;52.060;1.248;2022-10-04T08:14:20;8;6;
63305;PMS5003;50735;52.060;1.248;2022-10-04T08:17:00;10;8;
63305;PMS5003;50735;52.060;1.248;2022-10-04T08:19:41;10;6;
63305;PMS5003;50735;52.060;1.248;2022-10-04T08:22:20;12;9;
63305;PMS5003;50735;52.060;1.248;2022-10-04T08:24:58;10;7;
63305;PMS5003;50735;52.060;1.248;2022-10-04T08:27:34;7;7;
63305;PMS5003;50735;52.060;1.248;2022-10-04T08:30:12;9;7;
63305;PMS5003;50735;52.060;1.248;2022-10-04T08:32:50;6;6;
63305;PMS5003;50735;52.060;1.248;2022-10-04T08:35:30;11;9;
63305;PMS5003;50735;52.060;1.248;2022-10-04T08:38:06;7;7;
63305;PMS5003;50735;52.060;1.248;2022-10-04T08:40:50;6;6;
63305;PMS5003;50735;52.060;1.248;2022-10-04T08:43:50;12;9;
63305;PMS5003;50735;52.060;1.248;2022-10-04T08:46:07;11;8;
63305;PMS5003;50735;52.060;1.248;2022-10-04T08:48:57;4;4;
63305;PMS5003;50735;52.060;1.248;2022-10-04T08:51:49;8;7;
63305;PMS5003;50735;52.060;1.248;2022-10-04T08:54:42;11;6;
63305;PMS5003;50735;52.060;1.248;2022-10-04T08:59:43;8;6;
63305;PMS5003;50735;52.060;1.248;2022-10-04T09:05:01;7;6;
63305;PMS5003;50735;52.060;1.248;2022-10-04T09:07:48;5;5;
63305;PMS5003;50735;52.060;1.248;2022-10-04T09:10:44;6;6;
63305;PMS5003;50735;52.060;1.248;2022-10-04T09:13:28;6;6;
63305;PMS5003;50735;52.060;1.248;2022-10-04T09:16:07;6;6;
63305;PMS5003;50735;52.060;1.248;2022-10-04T09:18:49;8;5;
63305;PMS5003;50735;52.060;1.248;2022-10-04T09:21:25;5;5;
63305;PMS5003;50735;52.060;1.248;2022-10-04T09:24:19;6;6;
63305;PMS5003;50735;52.060;1.248;2022-10-04T09:27:02;9;5;
63305;PMS5003;50735;52.060;1.248;2022-10-04T09:29:47;4;3;
63305;PMS5003;50735;52.060;1.248;2022-10-04T09:32:43;5;5;
63305;PMS5003;50735;52.060;1.248;2022-10-04T09:35:50;9;6;
63305;PMS5003;50735;52.060;1.248;2022-10-04T09:38:34;6;6;
63305;PMS5003;50735;52.060;1.248;2022-10-04T09:41:29;4;4;
63305;PMS5003;50735;52.060;1.248;2022-10-04T09:44:24;5;5;
63305;PMS5003;50735;52.060;1.248;2022-10-04T09:47:10;8;6;
63305;PMS5003;50735;52.060;1.248;2022-10-04T09:50:08;3;3;
63305;PMS5003;50735;52.060;1.248;2022-10-04T09:53:13;4;4;
63305;PMS5003;50735;52.060;1.248;2022-10-04T09:55:55;4;4;
63305;PMS5003;50735;52.060;1.248;2022-10-04T09:58:36;8;4;
63305;PMS5003;50735;52.060;1.248;2022-10-04T10:01:19;4;4;
63305;PMS5003;50735;52.060;1.248;2022-10-04T10:03:57;5;3;
63305;PMS5003;50735;52.060;1.248;2022-10-04T10:07:19;5;2;
63305;PMS5003;50735;52.060;1.248;2022-10-04T10:10:00;3;3;
63305;PMS5003;50735;52.060;1.248;2022-10-04T10:12:47;4;2;
63305;PMS5003;50735;52.060;1.248;2022-10-04T10:15:38;3;3;
63305;PMS5003;50735;52.060;1.248;2022-10-04T10:18:16;2;1;
63305;PMS5003;50735;52.060;1.248;2022-10-04T10:21:03;1;1;
63305;PMS5003;50735;52.060;1.248;2022-10-04T10:23:47;4;2;
63305;PMS5003;50735;52.060;1.248;2022-10-04T10:26:35;4;4;
63305;PMS5003;50735;52.060;1.248;2022-10-04T10:29:20;4;4;
63305;PMS5003;50735;52.060;1.248;2022-10-04T10:33:09;2;2;
63305;PMS5003;50735;52.060;1.248;2022-10-04T10:36:27;6;3;
63305;PMS5003;50735;52.060;1.248;2022-10-04T10:39:19;4;4;
63305;PMS5003;50735;52.060;1.248;2022-10-04T10:42:08;5;3;
63305;PMS5003;50735;52.060;1.248;2022-10-04T10:44:58;3;3;
63305;PMS5003;50735;52.060;1.248;2022-10-04T10:47:42;5;5;
63305;PMS5003;50735;52.060;1.248;2022-10-04T10:50:23;3;3;
63305;PMS5003;50735;52.060;1.248;2022-10-04T10:53:11;3;3;
63305;PMS5003;50735;52.060;1.248;2022-10-04T10:56:02;5;5;
63305;PMS5003;50735;52.060;1.248;2022-10-04T10:59:02;4;4;
63305;PMS5003;50735;52.060;1.248;2022-10-04T11:01:29;4;4;
63305;PMS5003;50735;52.060;1.248;2022-10-04T11:05:27;3;3;
63305;PMS5003;50735;52.060;1.248;2022-10-04T11:08:26;6;4;
63305;PMS5003;50735;52.060;1.248;2022-10-04T11:11:15;5;3;
63305;PMS5003;50735;52.060;1.248;2022-10-04T11:14:01;3;3;
63305;PMS5003;50735;52.060;1.248;2022-10-04T11:16:29;3;3;
63305;PMS5003;50735;52.060;1.248;2022-10-04T11:25:55;3;3;
63305;PMS5003;50735;52.060;1.248;2022-10-04T11:28:35;5;3;
63305;PMS5003;50735;52.060;1.248;2022-10-04T11:31:18;3;2;
63305;PMS5003;50735;52.060;1.248;2022-10-04T11:35:16;5;5;
63305;PMS5003;50735;52.060;1.248;2022-10-04T11:38:02;3;3;
63305;PMS5003;50735;52.060;1.248;2022-10-04T11:40:41;4;4;
63305;PMS5003;50735;52.060;1.248;2022-10-04T11:43:28;2;2;
63305;PMS5003;50735;52.060;1.248;2022-10-04T11:46:09;3;3;
63305;PMS5003;50735;52.060;1.248;2022-10-04T11:48:47;6;5;
63305;PMS5003;50735;52.060;1.248;2022-10-04T11:51:31;4;2;
63305;PMS5003;50735;52.060;1.248;2022-10-04T11:54:20;2;2;
63305;PMS5003;50735;52.060;1.248;2022-10-04T11:57:07;5;4;
63305;PMS5003;50735;52.060;1.248;2022-10-04T11:59:47;5;5;
63305;PMS5003;50735;52.060;1.248;2022-10-04T12:02:30;4;4;
63305;PMS5003;50735;52.060;1.248;2022-10-04T12:05:18;4;4;
63305;PMS5003;50735;52.060;1.248;2022-10-04T12:08:00;3;3;
63305;PMS5003;50735;52.060;1.248;2022-10-04T12:10:43;5;5;
63305;PMS5003;50735;52.060;1.248;2022-10-04T12:13:30;5;4;
63305;PMS5003;50735;52.060;1.248;2022-10-04T12:16:16;5;5;
63305;PMS5003;50735;52.060;1.248;2022-10-04T12:19:02;4;4;
63305;PMS5003;50735;52.060;1.248;2022-10-04T12:22:07;5;4;
63305;PMS5003;50735;52.060;1.248;2022-10-04T12:27:03;6;4;
63305;PMS5003;50735;52.060;1.248;2022-10-04T12:30:26;6;5;
63305;PMS5003;50735;52.060;1.248;2022-10-04T12:33:08;6;3;
63305;PMS5003;50735;52.060;1.248;2022-10-04T12:35:46;5;2;
63305;PMS5003;50735;52.060;1.248;2022-10-04T12:38:31;2;2;
63305;PMS5003;50735;52.060;1.248;2022-10-04T12:41:18;4;4;
63305;PMS5003;50735;52.060;1.248;2022-10-04T12:43:58;2;2;
63305;PMS5003;50735;52.060;1.248;2022-10-04T12:46:38;3;3;
63305;PMS5003;50735;52.060;1.248;2022-10-04T12:49:15;2;2;
63305;PMS5003;50735;52.060;1.248;2022-10-04T12:51:52;3;3;
63305;PMS5003;50735;52.060;1.248;2022-10-04T12:54:31;6;4;
63305;PMS5003;50735;52.060;1.248;2022-10-04T12:57:05;8;6;
63305;PMS5003;50735;52.060;1.248;2022-10-04T12:59:54;6;4;
63305;PMS5003;50735;52.060;1.248;2022-10-04T13:02:34;4;4;
63305;PMS5003;50735;52.060;1.248;2022-10-04T13:05:17;7;5;
63305;PMS5003;50735;52.060;1.248;2022-10-04T13:07:57;5;3;
63305;PMS5003;50735;52.060;1.248;2022-10-04T13:10:35;4;4;
63305;PMS5003;50735;52.060;1.248;2022-10-04T13:13:19;10;7;
63305;PMS5003;50735;52.060;1.248;2022-10-04T13:16:35;5;5;
63305;PMS5003;50735;52.060;1.248;2022-10-04T13:19:12;2;2;
63305;PMS5003;50735;52.060;1.248;2022-10-04T13:21:54;4;4;
63305;PMS5003;50735;52.060;1.248;2022-10-04T13:24:40;5;5;
63305;PMS5003;50735;52.060;1.248;2022-10-04T13:27:15;2;2;
63305;PMS5003;50735;52.060;1.248;2022-10-04T13:29:50;1;1;
63305;PMS5003;50735;52.060;1.248;2022-10-04T13:32:23;2;2;
63305;PMS5003;50735;52.060;1.248;2022-10-04T13:34:54;1;1;
63305;PMS5003;50735;52.060;1.248;2022-10-04T13:37:31;1;1;
63305;PMS5003;50735;52.060;1.248;2022-10-04T13:40:19;1;1;
63305;PMS5003;50735;52.060;1.248;2022-10-04T13:42:58;0;0;
63305;PMS5003;50735;52.060;1.248;2022-10-04T13:45:42;1;1;
63305;PMS5003;50735;52.060;1.248;2022-10-04T13:48:24;1;1;
63305;PMS5003;50735;52.060;1.248;2022-10-04T13:50:58;1;0;
63305;PMS5003;50735;52.060;1.248;2022-10-04T13:53:35;1;1;
63305;PMS5003;50735;52.060;1.248;2022-10-04T13:56:14;3;1;
63305;PMS5003;50735;52.060;1.248;2022-10-04T13:58:59;1;1;
63305;PMS5003;50735;52.060;1.248;2022-10-04T14:03:44;1;1;
63305;PMS5003;50735;52.060;1.248;2022-10-04T14:06:27;1;1;
63305;PMS5003;50735;52.060;1.248;2022-10-04T14:09:19;1;1;
63305;PMS5003;50735;52.060;1.248;2022-10-04T14:11:56;4;2;
63305;PMS5003;50735;52.060;1.248;2022-10-04T14:14:50;1;1;
63305;PMS5003;50735;52.060;1.248;2022-10-04T14:17:11;1;1;
63305;PMS5003;50735;52.060;1.248;2022-10-04T14:19:58;7;2;
63305;PMS5003;50735;52.060;1.248;2022-10-04T14:23:22;1;1;
63305;PMS5003;50735;52.060;1.248;2022-10-04T14:26:06;1;1;
63305;PMS5003;50735;52.060;1.248;2022-10-04T14:29:08;1;1;
63305;PMS5003;50735;52.060;1.248;2022-10-04T14:31:55;1;1;
63305;PMS5003;50735;52.060;1.248;2022-10-04T14:34:59;3;3;
63305;PMS5003;50735;52.060;1.248;2022-10-04T14:37:41;2;2;
63305;PMS5003;50735;52.060;1.248;2022-10-04T14:42:45;1;1;
63305;PMS5003;50735;52.060;1.248;2022-10-04T14:45:27;0;0;
63305;PMS5003;50735;52.060;1.248;2022-10-04T14:48:08;2;2;
63305;PMS5003;50735;52.060;1.248;2022-10-04T14:50:53;3;2;
63305;PMS5003;50735;52.060;1.248;2022-10-04T14:53:32;1;1;
63305;PMS5003;50735;52.060;1.248;2022-10-04T14:56:22;1;1;
63305;PMS5003;50735;52.060;1.248;2022-10-04T14:59:03;1;1;
63305;PMS5003;50735;52.060;1.248;2022-10-04T15:01:44;2;2;
63305;PMS5003;50735;52.060;1.248;2022-10-04T15:04:59;1;1;
63305;PMS5003;50735;52.060;1.248;2022-10-04T15:07:37;1;1;
63305;PMS5003;50735;52.060;1.248;2022-10-04T15:10:09;2;2;
63305;PMS5003;50735;52.060;1.248;2022-10-04T15:12:54;1;1;
63305;PMS5003;50735;52.060;1.248;2022-10-04T15:15:31;3;2;
63305;PMS5003;50735;52.060;1.248;2022-10-04T15:18:10;1;1;
63305;PMS5003;50735;52.060;1.248;2022-10-04T15:20:52;4;2;
63305;PMS5003;50735;52.060;1.248;2022-10-04T15:23:28;3;2;
63305;PMS5003;50735;52.060;1.248;2022-10-04T15:26:00;2;2;
63305;PMS5003;50735;52.060;1.248;2022-10-04T15:28:41;5;2;
63305;PMS5003;50735;52.060;1.248;2022-10-04T15:31:22;2;2;
63305;PMS5003;50735;52.060;1.248;2022-10-04T15:33:58;5;3;
63305;PMS5003;50735;52.060;1.248;2022-10-04T15:36:44;2;2;
63305;PMS5003;50735;52.060;1.248;2022-10-04T15:39:30;3;3;
63305;PMS5003;50735;52.060;1.248;2022-10-04T15:42:08;2;2;
63305;PMS5003;50735;52.060;1.248;2022-10-04T15:44:44;3;3;
63305;PMS5003;50735;52.060;1.248;2022-10-04T15:47:24;4;2;
63305;PMS5003;50735;52.060;1.248;2022-10-04T15:50:04;5;5;
63305;PMS5003;50735;52.060;1.248;2022-10-04T15:52:52;2;2;
63305;PMS5003;50735;52.060;1.248;2022-10-04T15:58:24;2;1;
63305;PMS5003;50735;52.060;1.248;2022-10-04T16:01:10;3;2;
63305;PMS5003;50735;52.060;1.248;2022-10-04T16:03:48;4;2;
63305;PMS5003;50735;52.060;1.248;2022-10-04T16:06:39;2;2;
63305;PMS5003;50735;52.060;1.248;2022-10-04T16:09:13;1;1;
63305;PMS5003;50735;52.060;1.248;2022-10-04T16:11:53;2;2;
63305;PMS5003;50735;52.060;1.248;2022-10-04T16:15:31;1;1;
63305;PMS5003;50735;52.060;1.248;2022-10-04T16:18:03;6;2;
63305;PMS5003;50735;52.060;1.248;2022-10-04T16:20:49;6;2;
63305;PMS5003;50735;52.060;1.248;2022-10-04T16:23:27;2;2;
63305;PMS5003;50735;52.060;1.248;2022-10-04T16:25:56;2;0;
63305;PMS5003;50735;52.060;1.248;2022-10-04T16:28:27;1;1;
63305;PMS5003;50735;52.060;1.248;2022-10-04T16:31:25;2;2;
63305;PMS5003;50735;52.060;1.248;2022-10-04T16:34:08;2;2;
63305;PMS5003;50735;52.060;1.248;2022-10-04T16:36:50;11;8;
63305;PMS5003;50735;52.060;1.248;2022-10-04T16:39:36;2;2;
63305;PMS5003;50735;52.060;1.248;2022-10-04T16:42:06;2;2;
63305;PMS5003;50735;52.060;1.248;2022-10-04T16:44:45;3;3;
63305;PMS5003;50735;52.060;1.248;2022-10-04T16:47:17;2;2;
63305;PMS5003;50735;52.060;1.248;2022-10-04T16:49:49;1;1;
63305;PMS5003;50735;52.060;1.248;2022-10-04T16:52:23;3;2;
63305;PMS5003;50735;52.060;1.248;2022-10-04T16:55:06;2;2;
63305;PMS5003;50735;52.060;1.248;2022-10-04T16:58:27;3;3;
63305;PMS5003;50735;52.060;1.248;2022-10-04T17:01:41;4;3;
63305;PMS5003;50735;52.060;1.248;2022-10-04T17:04:29;2;2;
63305;PMS5003;50735;52.060;1.248;2022-10-04T17:07:21;4;3;
63305;PMS5003;50735;52.060;1.248;2022-10-04T17:09:57;4;3;
63305;PMS5003;50735;52.060;1.248;2022-10-04T17:12:32;1;1;
63305;PMS5003;50735;52.060;1.248;2022-10-04T17:15:19;4;2;
63305;PMS5003;50735;52.060;1.248;2022-10-04T17:18:00;2;2;
63305;PMS5003;50735;52.060;1.248;2022-10-04T17:20:43;4;2;
63305;PMS5003;50735;52.060;1.248;2022-10-04T17:23:22;2;2;
63305;PMS5003;50735;52.060;1.248;2022-10-04T17:26:05;2;2;
63305;PMS5003;50735;52.060;1.248;2022-10-04T17:28:43;3;3;
63305;PMS5003;50735;52.060;1.248;2022-10-04T17:31:17;2;2;
63305;PMS5003;50735;52.060;1.248;2022-10-04T17:33:53;3;3;
63305;PMS5003;50735;52.060;1.248;2022-10-04T17:36:32;3;3;
63305;PMS5003;50735;52.060;1.248;2022-10-04T17:39:37;2;2;
63305;PMS5003;50735;52.060;1.248;2022-10-04T17:42:15;1;1;
63305;PMS5003;50735;52.060;1.248;2022-10-04T17:47:01;2;2;
63305;PMS5003;50735;52.060;1.248;2022-10-04T17:49:37;2;2;
63305;PMS5003;50735;52.060;1.248;2022-10-04T17:52:14;3;3;
63305;PMS5003;50735;52.060;1.248;2022-10-04T17:54:44;2;2;
63305;PMS5003;50735;52.060;1.248;2022-10-04T17:57:17;2;2;
63305;PMS5003;50735;52.060;1.248;2022-10-04T17:59:51;3;2;
63305;PMS5003;50735;52.060;1.248;2022-10-04T18:02:25;2;2;
63305;PMS5003;50735;52.060;1.248;2022-10-04T18:05:12;1;1;
63305;PMS5003;50735;52.060;1.248;2022-10-04T18:07:46;2;2;
63305;PMS5003;50735;52.060;1.248;2022-10-04T18:10:21;3;2;
63305;PMS5003;50735;52.060;1.248;2022-10-04T18:12:55;2;2;
63305;PMS5003;50735;52.060;1.248;2022-10-04T18:15:28;3;3;
63305;PMS5003;50735;52.060;1.248;2022-10-04T18:18:07;6;3;
63305;PMS5003;50735;52.060;1.248;2022-10-04T18:20:44;2;2;
63305;PMS5003;50735;52.060;1.248;2022-10-04T18:23:27;1;1;